createdAt,value
2022-09-22T00:00:04.816Z,3.00
2022-09-22T00:01:09.005Z,3.00
2022-09-22T00:02:12.924Z,3.25
2022-09-22T00:03:16.964Z,2.50
2022-09-22T00:04:20.552Z,2.00
2022-09-22T00:05:24.347Z,1.50
2022-09-22T00:06:28.246Z,0.75
2022-09-22T00:07:32.345Z,1.00
2022-09-22T00:08:36.250Z,2.00
2022-09-22T00:09:40.049Z,1.25
2022-09-22T00:10:44.042Z,1.00
2022-09-22T00:11:47.841Z,1.50
2022-09-22T00:12:51.709Z,1.25
2022-09-22T00:13:55.537Z,1.50
2022-09-22T00:14:59.437Z,2.00
2022-09-22T00:16:03.277Z,1.50
2022-09-22T00:17:07.341Z,1.00
2022-09-22T00:18:11.343Z,0.25
2022-09-22T00:19:15.333Z,1.00
2022-09-22T00:20:19.241Z,1.50
2022-09-22T00:21:23.342Z,0.50
2022-09-22T00:22:27.340Z,0.75
2022-09-22T00:23:31.245Z,2.00
2022-09-22T00:24:35.502Z,2.00
2022-09-22T00:25:39.213Z,2.25
2022-09-22T00:26:42.932Z,1.00
2022-09-22T00:27:46.916Z,0.50
2022-09-22T00:28:50.626Z,1.00
2022-09-22T00:29:54.731Z,1.25
2022-09-22T00:30:58.832Z,1.00
2022-09-22T00:32:07.193Z,0.00
2022-09-22T00:33:08.063Z,1.25
2022-09-22T00:34:12.266Z,1.50
2022-09-22T00:35:16.475Z,1.50
2022-09-22T00:36:20.771Z,1.00
2022-09-22T00:37:24.688Z,2.00
2022-09-22T00:38:28.687Z,1.25
2022-09-22T00:39:32.684Z,1.50
2022-09-22T00:40:36.824Z,1.25
2022-09-22T00:41:40.704Z,1.00
2022-09-22T00:42:44.380Z,2.50
2022-09-22T00:43:48.184Z,1.50
2022-09-22T00:44:52.086Z,1.00
2022-09-22T00:45:55.970Z,1.50
2022-09-22T00:47:00.124Z,2.00
2022-09-22T00:48:03.982Z,2.00
2022-09-22T00:49:07.739Z,2.50
2022-09-22T00:50:11.859Z,2.00
2022-09-22T00:51:16.079Z,1.25
2022-09-22T00:52:20.188Z,1.50
2022-09-22T00:53:24.188Z,2.00
2022-09-22T00:54:28.500Z,2.00
2022-09-22T00:55:32.292Z,1.00
2022-09-22T00:56:36.403Z,1.00
2022-09-22T00:57:40.202Z,2.25
2022-09-22T00:58:44.204Z,1.00
2022-09-22T00:59:47.990Z,1.50
2022-09-22T01:00:52.139Z,1.50
2022-09-22T01:01:56.261Z,2.00
2022-09-22T01:03:00.192Z,2.00
2022-09-22T01:04:04.204Z,2.00
2022-09-22T01:05:08.201Z,1.25
2022-09-22T01:06:12.203Z,2.00
2022-09-22T01:07:16.813Z,2.50
2022-09-22T01:08:21.125Z,1.50
2022-09-22T01:09:25.019Z,0.00
2022-09-22T01:10:28.830Z,0.50
2022-09-22T01:11:33.027Z,1.00
2022-09-22T01:12:37.344Z,1.50
2022-09-22T01:13:41.691Z,1.50
2022-09-22T01:14:46.362Z,2.25
2022-09-22T01:15:50.845Z,1.50
2022-09-22T01:16:55.080Z,0.50
2022-09-22T01:17:59.328Z,0.75
2022-09-22T01:19:03.899Z,1.50
2022-09-22T01:20:08.122Z,1.25
2022-09-22T01:21:12.175Z,1.00
2022-09-22T01:22:16.309Z,1.25
2022-09-22T01:24:40.080Z,1.00
2022-09-22T01:25:43.882Z,0.50
2022-09-22T01:26:47.982Z,1.00
2022-09-22T01:27:52.390Z,1.25
2022-09-22T01:28:56.810Z,0.50
2022-09-22T01:30:01.114Z,0.50
2022-09-22T01:31:05.872Z,0.00
2022-09-22T01:32:10.145Z,1.75
2022-09-22T01:33:14.860Z,3.00
2022-09-22T01:34:19.386Z,3.00
2022-09-22T01:35:24.506Z,3.00
2022-09-22T01:36:29.119Z,2.50
2022-09-22T01:37:33.323Z,2.00
2022-09-22T01:38:37.631Z,1.00
2022-09-22T01:39:41.951Z,2.00
2022-09-22T01:40:46.116Z,3.00
2022-09-22T01:41:50.185Z,3.00
2022-09-22T01:42:54.455Z,1.50
2022-09-22T01:43:58.972Z,1.50
2022-09-22T01:45:05.094Z,2.25
2022-09-22T01:46:08.911Z,1.50
2022-09-22T01:47:13.128Z,1.00
2022-09-22T01:48:19.358Z,1.75
2022-09-22T01:49:22.860Z,1.00
2022-09-22T01:50:27.075Z,1.00
2022-09-22T01:51:31.302Z,1.00
2022-09-22T01:52:35.769Z,2.00
2022-09-22T01:53:40.050Z,2.50
2022-09-22T01:54:43.885Z,1.00
2022-09-22T01:55:48.200Z,1.50
2022-09-22T01:56:53.967Z,1.00
2022-09-22T01:57:58.131Z,0.25
2022-09-22T01:59:02.454Z,0.75
2022-09-22T02:00:07.273Z,0.75
2022-09-22T02:01:14.580Z,0.50
2022-09-22T02:02:17.174Z,0.50
2022-09-22T02:03:21.331Z,0.75
2022-09-22T02:04:25.632Z,0.50
2022-09-22T02:05:29.428Z,0.00
2022-09-22T02:06:34.052Z,0.00
2022-09-22T02:07:38.358Z,1.25
2022-09-22T02:08:42.731Z,1.50
2022-09-22T02:09:46.922Z,0.75
2022-09-22T02:10:51.281Z,1.00
2022-09-22T02:11:55.072Z,1.00
2022-09-22T02:12:59.386Z,1.00
2022-09-22T02:14:03.381Z,0.75
2022-09-22T02:15:07.279Z,1.00
2022-09-22T02:16:11.728Z,1.00
2022-09-22T02:17:15.789Z,1.00
2022-09-22T02:18:19.926Z,1.00
2022-09-22T02:19:23.806Z,0.00
2022-09-22T02:20:28.010Z,0.75
2022-09-22T02:21:32.161Z,1.25
2022-09-22T02:22:36.739Z,1.00
2022-09-22T02:23:41.347Z,0.50
2022-09-22T02:24:45.890Z,0.25
2022-09-22T02:25:50.004Z,0.50
2022-09-22T02:26:54.223Z,1.00
2022-09-22T02:27:58.479Z,1.00
2022-09-22T02:29:02.880Z,1.50
2022-09-22T02:30:07.055Z,0.75
2022-09-22T02:31:19.953Z,0.50
2022-09-22T02:32:16.422Z,0.50
2022-09-22T02:33:21.549Z,0.50
2022-09-22T02:34:25.367Z,1.00
2022-09-22T02:35:29.451Z,0.50
2022-09-22T02:36:33.865Z,1.00
2022-09-22T02:37:37.880Z,1.00
2022-09-22T02:38:42.174Z,0.50
2022-09-22T02:39:46.443Z,0.50
2022-09-22T02:40:50.765Z,2.00
2022-09-22T02:41:54.990Z,1.75
2022-09-22T02:42:59.454Z,2.00
2022-09-22T02:44:03.498Z,2.00
2022-09-22T02:45:08.220Z,1.25
2022-09-22T02:46:12.684Z,0.50
2022-09-22T02:47:18.604Z,0.50
2022-09-22T02:48:22.681Z,0.50
2022-09-22T02:49:26.988Z,0.75
2022-09-22T02:50:30.991Z,1.00
2022-09-22T02:51:35.399Z,2.00
2022-09-22T02:52:39.550Z,1.50
2022-09-22T02:53:43.921Z,1.75
2022-09-22T02:54:48.021Z,2.75
2022-09-22T02:55:51.707Z,3.00
2022-09-22T02:56:55.610Z,4.50
2022-09-22T02:57:59.408Z,4.25
2022-09-22T02:59:03.410Z,1.50
2022-09-22T03:00:07.104Z,1.00
2022-09-22T03:01:11.186Z,0.75
2022-09-22T03:02:15.211Z,1.25
2022-09-22T03:03:18.992Z,1.50
2022-09-22T03:04:22.777Z,0.50
2022-09-22T03:05:26.600Z,2.00
2022-09-22T03:06:30.498Z,2.00
2022-09-22T03:07:34.386Z,1.50
2022-09-22T03:08:38.289Z,0.25
2022-09-22T03:09:42.192Z,0.50
2022-09-22T03:10:46.089Z,1.50
2022-09-22T03:11:50.120Z,1.25
2022-09-22T03:13:14.853Z,1.50
2022-09-22T03:13:59.012Z,0.50
2022-09-22T03:15:02.911Z,1.00
2022-09-22T03:16:06.816Z,1.75
2022-09-22T03:17:10.471Z,1.00
2022-09-22T03:18:14.205Z,1.00
2022-09-22T03:19:18.208Z,1.00
2022-09-22T03:20:22.139Z,1.50
2022-09-22T03:21:26.001Z,1.00
2022-09-22T03:22:29.794Z,0.50
2022-09-22T03:23:33.591Z,0.75
2022-09-22T03:24:37.422Z,1.00
2022-09-22T03:25:41.293Z,2.00
2022-09-22T03:26:45.184Z,1.00
2022-09-22T03:27:49.082Z,2.00
2022-09-22T03:28:52.774Z,3.00
2022-09-22T03:29:56.568Z,3.00
2022-09-22T03:31:00.538Z,2.00
2022-09-22T03:32:04.270Z,2.00
2022-09-22T03:33:08.058Z,2.00
2022-09-22T03:34:11.661Z,0.75
2022-09-22T03:35:15.550Z,1.50
2022-09-22T03:36:19.354Z,1.75
2022-09-22T03:37:23.162Z,2.00
2022-09-22T03:38:28.448Z,2.00
2022-09-22T03:39:33.161Z,1.50
2022-09-22T03:40:37.147Z,0.50
2022-09-22T03:41:41.013Z,1.25
2022-09-22T03:42:44.786Z,1.25
2022-09-22T03:43:48.698Z,2.00
2022-09-22T03:44:52.689Z,2.00
2022-09-22T03:45:56.710Z,1.25
2022-09-22T03:47:00.587Z,0.50
2022-09-22T03:48:04.901Z,0.00
2022-09-22T03:49:08.922Z,0.00
2022-09-22T03:50:13.209Z,0.50
2022-09-22T03:51:17.212Z,1.00
2022-09-22T03:52:21.233Z,0.75
2022-09-22T03:53:25.311Z,1.00
2022-09-22T03:54:29.620Z,2.00
2022-09-22T03:55:33.415Z,1.50
2022-09-22T03:56:37.521Z,1.50
2022-09-22T03:57:41.212Z,0.75
2022-09-22T03:58:45.003Z,2.00
2022-09-22T03:59:48.805Z,1.50
2022-09-22T04:00:52.506Z,0.50
2022-09-22T04:01:58.248Z,0.75
2022-09-22T04:03:01.218Z,1.50
2022-09-22T04:04:05.239Z,1.50
2022-09-22T04:05:08.911Z,1.25
2022-09-22T04:06:12.622Z,2.00
2022-09-22T04:07:16.404Z,3.50
2022-09-22T04:08:20.197Z,2.50
2022-09-22T04:09:24.101Z,2.00
2022-09-22T04:10:27.893Z,2.00
2022-09-22T04:11:31.690Z,2.00
2022-09-22T04:12:35.397Z,0.50
2022-09-22T04:13:44.044Z,1.50
2022-09-22T04:14:44.409Z,2.00
2022-09-22T04:15:48.094Z,2.50
2022-09-22T04:16:52.128Z,2.75
2022-09-22T04:17:56.121Z,2.00
2022-09-22T04:18:59.803Z,2.25
2022-09-22T04:20:03.696Z,2.25
2022-09-22T04:21:07.503Z,3.00
2022-09-22T04:22:11.118Z,2.75
2022-09-22T04:23:16.015Z,2.00
2022-09-22T04:24:21.041Z,0.50
2022-09-22T04:25:25.139Z,2.50
2022-09-22T04:26:29.040Z,2.00
2022-09-22T04:27:32.843Z,2.00
2022-09-22T04:28:36.541Z,2.00
2022-09-22T04:29:40.329Z,1.50
2022-09-22T04:30:44.149Z,1.50
2022-09-22T04:31:48.026Z,1.00
2022-09-22T04:32:51.729Z,1.00
2022-09-22T04:33:55.423Z,2.00
2022-09-22T04:34:59.220Z,2.00
2022-09-22T04:36:03.341Z,1.25
2022-09-22T04:37:07.097Z,1.25
2022-09-22T04:38:10.941Z,2.25
2022-09-22T04:39:14.703Z,1.50
2022-09-22T04:40:18.536Z,1.00
2022-09-22T04:41:22.391Z,0.25
2022-09-22T04:42:26.088Z,1.00
2022-09-22T04:43:29.778Z,1.50
2022-09-22T04:44:35.202Z,1.00
2022-09-22T04:45:39.813Z,1.00
2022-09-22T04:46:43.422Z,1.00
2022-09-22T04:47:47.220Z,1.00
2022-09-22T04:48:51.139Z,2.25
2022-09-22T04:49:54.874Z,2.00
2022-09-22T04:50:58.725Z,1.75
2022-09-22T04:52:02.512Z,2.00
2022-09-22T04:53:06.306Z,1.75
2022-09-22T04:54:10.298Z,1.25
2022-09-22T04:55:14.002Z,0.50
2022-09-22T04:56:17.798Z,2.50
2022-09-22T04:57:21.714Z,2.50
2022-09-22T04:58:25.383Z,2.00
2022-09-22T04:59:29.181Z,1.75
2022-09-22T05:00:32.981Z,2.00
2022-09-22T05:01:36.744Z,2.50
2022-09-22T05:02:40.607Z,1.25
2022-09-22T05:03:44.258Z,1.25
2022-09-22T05:04:48.060Z,2.00
2022-09-22T05:05:51.857Z,1.50
2022-09-22T05:06:55.533Z,1.75
2022-09-22T05:07:59.150Z,2.00
2022-09-22T05:09:03.038Z,1.50
2022-09-22T05:10:06.941Z,1.40
2022-09-22T05:11:10.839Z,1.75
2022-09-22T05:12:14.839Z,1.75
2022-09-22T05:13:18.936Z,1.25
2022-09-22T05:14:26.401Z,1.50
2022-09-22T05:15:29.206Z,1.75
2022-09-22T05:16:36.571Z,1.25
2022-09-22T05:17:40.472Z,2.75
2022-09-22T05:18:44.369Z,4.00
2022-09-22T05:19:48.265Z,1.75
2022-09-22T05:20:52.389Z,1.25
2022-09-22T05:21:56.682Z,1.00
2022-09-22T05:23:00.747Z,1.50
2022-09-22T05:24:04.786Z,1.50
2022-09-22T05:25:08.907Z,1.25
2022-09-22T05:26:13.124Z,2.00
2022-09-22T05:27:16.907Z,2.00
2022-09-22T05:28:21.001Z,2.50
2022-09-22T05:29:27.908Z,1.00
2022-09-22T05:30:30.449Z,1.50
2022-09-22T05:31:34.279Z,1.00
2022-09-22T05:32:38.336Z,2.25
2022-09-22T05:33:41.980Z,1.00
2022-09-22T05:34:45.577Z,1.00
2022-09-22T05:35:52.204Z,2.00
2022-09-22T05:36:56.075Z,2.25
2022-09-22T05:37:59.787Z,1.50
2022-09-22T05:39:03.670Z,1.50
2022-09-22T05:40:07.556Z,2.25
2022-09-22T05:41:11.265Z,1.25
2022-09-22T05:42:14.959Z,1.00
2022-09-22T05:43:18.648Z,1.00
2022-09-22T05:44:22.651Z,2.50
2022-09-22T05:45:26.480Z,2.00
2022-09-22T05:46:30.182Z,1.50
2022-09-22T05:47:33.938Z,1.75
2022-09-22T05:48:37.846Z,1.50
2022-09-22T05:49:41.741Z,1.50
2022-09-22T05:50:45.563Z,1.00
2022-09-22T05:51:49.326Z,2.00
2022-09-22T05:52:53.443Z,1.00
2022-09-22T05:53:57.265Z,1.00
2022-09-22T05:55:03.642Z,1.00
2022-09-22T05:56:06.121Z,2.50
2022-09-22T05:57:10.132Z,2.75
2022-09-22T05:58:14.048Z,2.00
2022-09-22T05:59:18.262Z,2.00
2022-09-22T06:00:22.071Z,1.00
2022-09-22T06:01:26.188Z,2.25
2022-09-22T06:02:30.136Z,2.00
2022-09-22T06:03:33.957Z,1.00
2022-09-22T06:04:38.134Z,1.50
2022-09-22T06:05:41.874Z,2.00
2022-09-22T06:06:45.550Z,2.00
2022-09-22T06:07:49.140Z,1.00
2022-09-22T06:08:53.139Z,1.00
2022-09-22T06:09:56.806Z,1.25
2022-09-22T06:11:00.745Z,2.00
2022-09-22T06:12:04.526Z,3.50
2022-09-22T06:13:08.530Z,2.50
2022-09-22T06:14:12.531Z,1.50
2022-09-22T06:15:16.528Z,2.25
2022-09-22T06:16:20.573Z,1.50
2022-09-22T06:17:24.538Z,0.75
2022-09-22T06:18:28.540Z,1.50
2022-09-22T06:19:32.304Z,1.50
2022-09-22T06:20:36.501Z,1.50
2022-09-22T06:21:40.193Z,1.50
2022-09-22T06:22:43.926Z,1.75
2022-09-22T06:23:47.692Z,2.00
2022-09-22T06:24:51.517Z,2.00
2022-09-22T06:25:55.520Z,1.50
2022-09-22T06:26:59.317Z,1.50
2022-09-22T06:28:02.968Z,1.50
2022-09-22T06:29:06.814Z,2.00
2022-09-22T06:30:10.812Z,1.75
2022-09-22T06:31:14.651Z,1.25
2022-09-22T06:32:18.518Z,1.00
2022-09-22T06:33:22.240Z,2.00
2022-09-22T06:34:25.995Z,1.50
2022-09-22T06:35:29.790Z,1.50
2022-09-22T06:36:33.591Z,1.25
2022-09-22T06:37:37.387Z,2.00
2022-09-22T06:38:41.290Z,1.75
2022-09-22T06:39:45.268Z,1.00
2022-09-22T06:40:49.773Z,0.50
2022-09-22T06:41:54.002Z,2.00
2022-09-22T06:42:58.145Z,2.00
2022-09-22T06:44:02.228Z,1.25
2022-09-22T06:45:06.403Z,1.50
2022-09-22T06:46:10.531Z,2.00
2022-09-22T06:47:14.808Z,2.50
2022-09-22T06:48:20.775Z,1.25
2022-09-22T06:49:24.862Z,1.50
2022-09-22T06:50:30.593Z,1.50
2022-09-22T06:51:34.406Z,2.00
2022-09-22T06:52:38.912Z,1.00
2022-09-22T06:53:43.012Z,3.00
2022-09-22T06:54:46.739Z,3.25
2022-09-22T06:55:52.389Z,1.75
2022-09-22T06:56:55.448Z,2.00
2022-09-22T06:57:59.138Z,2.00
2022-09-22T06:59:10.612Z,2.75
2022-09-22T07:00:09.134Z,2.50
2022-09-22T07:01:12.875Z,1.75
2022-09-22T07:02:16.834Z,2.50
2022-09-22T07:03:20.844Z,2.00
2022-09-22T07:04:24.582Z,1.50
2022-09-22T07:05:29.713Z,0.50
2022-09-22T07:06:33.431Z,1.50
2022-09-22T07:07:37.000Z,2.00
2022-09-22T07:08:40.992Z,2.50
2022-09-22T07:09:46.415Z,2.00
2022-09-22T07:10:49.617Z,1.50
2022-09-22T07:11:53.706Z,1.50
2022-09-22T07:12:57.930Z,1.50
2022-09-22T07:14:03.289Z,1.50
2022-09-22T07:15:07.158Z,2.00
2022-09-22T07:16:10.993Z,2.00
2022-09-22T07:17:14.595Z,2.00
2022-09-22T07:18:18.227Z,1.50
2022-09-22T07:19:22.030Z,0.50
2022-09-22T07:20:25.629Z,2.00
2022-09-22T07:21:29.333Z,1.75
2022-09-22T07:22:33.022Z,1.00
2022-09-22T07:23:36.911Z,1.25
2022-09-22T07:24:40.907Z,2.25
2022-09-22T07:25:44.802Z,2.50
2022-09-22T07:26:48.509Z,4.25
2022-09-22T07:27:52.099Z,3.75
2022-09-22T07:28:55.991Z,2.50
2022-09-22T07:29:59.796Z,1.00
2022-09-22T07:31:04.744Z,2.00
2022-09-22T07:32:08.500Z,1.50
2022-09-22T07:33:12.171Z,1.00
2022-09-22T07:34:15.892Z,0.75
2022-09-22T07:35:19.659Z,0.75
2022-09-22T07:36:23.282Z,1.75
2022-09-22T07:37:27.242Z,2.25
2022-09-22T07:38:32.894Z,1.50
2022-09-22T07:39:36.609Z,1.50
2022-09-22T07:40:40.658Z,0.50
2022-09-22T07:41:44.419Z,0.75
2022-09-22T07:42:48.222Z,1.00
2022-09-22T07:43:52.028Z,1.75
2022-09-22T07:44:56.050Z,2.00
2022-09-22T07:45:59.826Z,1.50
2022-09-22T07:47:03.686Z,1.00
2022-09-22T07:48:07.785Z,2.00
2022-09-22T07:49:11.926Z,2.00
2022-09-22T07:50:16.405Z,2.50
2022-09-22T07:51:20.811Z,1.00
2022-09-22T07:52:25.024Z,1.00
2022-09-22T07:53:29.528Z,0.75
2022-09-22T07:54:33.835Z,0.50
2022-09-22T07:55:38.148Z,1.00
2022-09-22T07:56:42.047Z,1.00
2022-09-22T07:57:46.285Z,1.50
2022-09-22T07:58:50.452Z,2.50
2022-09-22T07:59:54.581Z,0.50
2022-09-22T08:00:58.703Z,0.00
2022-09-22T08:02:02.800Z,0.00
2022-09-22T08:03:07.499Z,0.50
2022-09-22T08:04:12.003Z,0.50
2022-09-22T08:05:15.972Z,1.00
2022-09-22T08:06:20.108Z,0.50
2022-09-22T08:07:24.713Z,0.50
2022-09-22T08:08:29.477Z,0.50
2022-09-22T08:09:33.645Z,0.25
2022-09-22T08:10:38.050Z,1.00
2022-09-22T08:11:41.952Z,0.75
2022-09-22T08:12:46.362Z,0.50
2022-09-22T08:13:50.881Z,1.00
2022-09-22T08:14:56.308Z,1.00
2022-09-22T08:16:00.560Z,0.75
2022-09-22T08:17:05.132Z,1.00
2022-09-22T08:18:09.580Z,1.00
2022-09-22T08:19:14.064Z,0.50
2022-09-22T08:20:18.370Z,0.50
2022-09-22T08:21:23.086Z,0.50
2022-09-22T08:22:27.290Z,1.00
2022-09-22T08:23:31.668Z,1.00
2022-09-22T08:24:35.814Z,1.50
2022-09-22T08:25:40.520Z,2.00
2022-09-22T08:26:48.096Z,1.50
2022-09-22T08:27:50.385Z,1.00
2022-09-22T08:28:54.813Z,1.50
2022-09-22T08:29:59.288Z,1.00
2022-09-22T08:31:04.483Z,0.25
2022-09-22T08:32:08.842Z,1.00
2022-09-22T08:33:13.435Z,1.00
2022-09-22T08:34:18.388Z,0.50
2022-09-22T08:35:22.983Z,1.00
2022-09-22T08:36:26.978Z,0.75
2022-09-22T08:37:31.188Z,0.25
2022-09-22T08:38:35.511Z,1.50
2022-09-22T08:39:39.685Z,0.50
2022-09-22T08:40:44.584Z,1.00
2022-09-22T08:41:49.132Z,0.25
2022-09-22T08:42:53.240Z,0.50
2022-09-22T08:43:57.455Z,1.00
2022-09-22T08:45:01.647Z,0.25
2022-09-22T08:46:05.816Z,0.50
2022-09-22T08:47:10.160Z,0.00
2022-09-22T08:48:14.329Z,0.25
2022-09-22T08:49:18.584Z,0.50
2022-09-22T08:50:23.298Z,0.50
2022-09-22T08:51:27.699Z,1.00
2022-09-22T08:52:32.115Z,0.50
2022-09-22T08:53:36.321Z,0.00
2022-09-22T08:54:40.729Z,1.00
2022-09-22T08:55:45.241Z,0.50
2022-09-22T08:56:49.451Z,1.00
2022-09-22T08:57:53.860Z,1.00
2022-09-22T08:58:57.723Z,1.25
2022-09-22T09:00:02.536Z,1.00
2022-09-22T09:01:06.686Z,0.00
2022-09-22T09:02:11.160Z,1.50
2022-09-22T09:03:15.329Z,1.25
2022-09-22T09:04:19.611Z,0.50
2022-09-22T09:05:24.138Z,0.50
2022-09-22T09:06:28.323Z,0.50
2022-09-22T09:07:32.290Z,1.00
2022-09-22T09:08:36.092Z,1.00
2022-09-22T09:09:40.331Z,0.50
2022-09-22T09:10:44.642Z,1.00
2022-09-22T09:11:48.541Z,1.00
2022-09-22T09:12:52.535Z,1.00
2022-09-22T09:13:56.844Z,0.50
2022-09-22T09:15:00.761Z,1.75
2022-09-22T09:16:05.019Z,1.50
2022-09-22T09:17:09.570Z,1.50
2022-09-22T09:18:14.516Z,1.50
2022-09-22T09:19:19.612Z,0.50
2022-09-22T09:20:23.920Z,1.00
2022-09-22T09:21:28.340Z,1.50
2022-09-22T09:22:33.158Z,1.00
2022-09-22T09:25:47.719Z,0.50
2022-09-22T09:26:51.823Z,1.00
2022-09-22T09:27:56.094Z,1.00
2022-09-22T09:29:03.693Z,0.50
2022-09-22T09:30:05.768Z,0.50
2022-09-22T09:31:10.137Z,0.50
2022-09-22T09:32:14.490Z,1.50
2022-09-22T09:33:19.511Z,1.50
2022-09-22T09:34:23.822Z,1.00
2022-09-22T09:35:28.234Z,1.00
2022-09-22T09:36:32.662Z,1.50
2022-09-22T09:37:36.748Z,1.50
2022-09-22T09:38:40.949Z,1.00
2022-09-22T09:39:45.259Z,1.00
2022-09-22T09:40:49.145Z,1.00
2022-09-22T09:41:53.368Z,1.00
2022-09-22T09:42:57.568Z,1.25
2022-09-22T09:44:01.879Z,1.50
2022-09-22T09:45:06.006Z,1.50
2022-09-22T09:46:10.135Z,1.00
2022-09-22T09:47:14.296Z,1.25
2022-09-22T09:48:18.417Z,2.50
2022-09-22T09:49:22.497Z,2.25
2022-09-22T09:50:26.612Z,1.50
2022-09-22T09:51:30.701Z,1.50
2022-09-22T09:52:34.808Z,1.50
2022-09-22T09:53:41.185Z,1.50
2022-09-22T09:54:44.350Z,2.50
2022-09-22T09:55:48.349Z,2.00
2022-09-22T09:56:52.751Z,1.00
2022-09-22T09:57:56.970Z,0.50
2022-09-22T09:59:01.278Z,2.00
2022-09-22T10:00:05.791Z,1.50
2022-09-22T10:01:10.709Z,0.75
2022-09-22T10:02:15.117Z,2.50
2022-09-22T10:03:19.789Z,2.00
2022-09-22T10:04:25.275Z,1.75
2022-09-22T10:05:29.577Z,2.00
2022-09-22T10:07:49.975Z,1.00
2022-09-22T10:08:54.104Z,1.75
2022-09-22T10:09:58.493Z,2.00
2022-09-22T10:11:03.008Z,2.25
2022-09-22T10:12:07.410Z,3.25
2022-09-22T10:13:13.557Z,2.00
2022-09-22T10:14:17.156Z,1.50
2022-09-22T10:15:21.565Z,2.00
2022-09-22T10:16:25.581Z,2.25
2022-09-22T10:17:29.572Z,2.50
2022-09-22T10:18:33.769Z,1.50
2022-09-22T10:19:37.972Z,1.00
2022-09-22T10:20:41.987Z,2.00
2022-09-22T10:21:45.980Z,1.50
2022-09-22T10:22:50.705Z,2.00
2022-09-22T10:23:54.801Z,1.50
2022-09-22T10:24:59.108Z,1.50
2022-09-22T10:26:03.420Z,2.25
2022-09-22T10:27:07.823Z,2.50
2022-09-22T10:28:12.031Z,2.00
2022-09-22T10:29:16.233Z,1.50
2022-09-22T10:30:20.341Z,2.00
2022-09-22T10:31:24.305Z,2.00
2022-09-22T10:32:28.348Z,4.00
2022-09-22T10:33:32.342Z,5.00
2022-09-22T10:34:36.536Z,5.50
2022-09-22T10:35:40.652Z,4.50
2022-09-22T10:36:44.657Z,2.75
2022-09-22T10:37:48.659Z,2.50
2022-09-22T10:38:54.575Z,2.00
2022-09-22T10:39:58.399Z,2.50
2022-09-22T10:41:02.709Z,2.50
2022-09-22T10:42:07.327Z,2.00
2022-09-22T10:43:11.528Z,2.00
2022-09-22T10:45:21.399Z,2.00
2022-09-22T10:46:25.490Z,1.00
2022-09-22T10:47:29.766Z,1.50
2022-09-22T10:48:33.980Z,2.00
2022-09-22T10:49:38.205Z,1.50
2022-09-22T10:50:43.137Z,1.00
2022-09-22T10:51:47.326Z,1.50
2022-09-22T10:52:51.848Z,1.75
2022-09-22T10:53:55.842Z,2.00
2022-09-22T10:54:59.940Z,0.50
2022-09-22T10:56:04.352Z,1.00
2022-09-22T10:57:08.560Z,1.00
2022-09-22T10:58:12.866Z,1.50
2022-09-22T10:59:17.386Z,1.50
2022-09-22T11:00:21.343Z,2.00
2022-09-22T11:01:25.651Z,1.50
2022-09-22T11:02:29.800Z,1.50
2022-09-22T11:03:33.852Z,2.00
2022-09-22T11:04:38.070Z,2.00
2022-09-22T11:05:43.537Z,1.00
2022-09-22T11:06:47.852Z,1.25
2022-09-22T11:07:51.866Z,1.50
2022-09-22T11:08:56.051Z,1.50
2022-09-22T11:10:00.283Z,1.00
2022-09-22T11:11:04.883Z,2.00
2022-09-22T11:12:09.491Z,2.00
2022-09-22T11:13:13.794Z,1.50
2022-09-22T11:14:18.218Z,1.50
2022-09-22T11:15:22.801Z,1.50
2022-09-22T11:16:27.231Z,1.00
2022-09-22T11:17:31.746Z,2.00
2022-09-22T11:18:39.552Z,2.00
2022-09-22T11:19:41.289Z,1.50
2022-09-22T11:20:45.801Z,1.25
2022-09-22T11:21:50.721Z,1.50
2022-09-22T11:22:54.929Z,1.50
2022-09-22T11:23:59.448Z,1.75
2022-09-22T11:25:03.645Z,1.50
2022-09-22T11:26:07.859Z,1.00
2022-09-22T11:27:11.856Z,2.25
2022-09-22T11:28:15.954Z,2.00
2022-09-22T11:29:20.058Z,1.50
2022-09-22T11:30:24.091Z,2.25
2022-09-22T11:31:28.067Z,1.25
2022-09-22T11:32:32.473Z,1.50
2022-09-22T11:33:36.579Z,1.00
2022-09-22T11:34:40.575Z,1.00
2022-09-22T11:35:44.885Z,1.00
2022-09-22T11:36:51.599Z,1.50
2022-09-22T11:37:54.321Z,0.50
2022-09-22T11:38:58.725Z,1.00
2022-09-22T11:40:02.910Z,1.00
2022-09-22T11:41:07.879Z,1.50
2022-09-22T11:42:12.076Z,1.25
2022-09-22T11:43:16.601Z,1.25
2022-09-22T11:44:20.664Z,1.00
2022-09-22T11:45:24.477Z,1.00
2022-09-22T11:46:29.106Z,0.75
2022-09-22T11:47:33.397Z,1.67
2022-09-22T11:48:38.127Z,1.25
2022-09-22T11:49:42.428Z,1.50
2022-09-22T11:50:47.555Z,1.50
2022-09-22T11:51:51.969Z,1.50
2022-09-22T11:52:58.406Z,1.00
2022-09-22T11:54:01.359Z,0.50
2022-09-22T11:55:05.605Z,1.00
2022-09-22T11:56:09.952Z,1.00
2022-09-22T11:57:14.241Z,1.75
2022-09-22T11:58:18.488Z,1.50
2022-09-22T11:59:24.353Z,2.00
2022-09-22T12:00:28.804Z,1.50
2022-09-22T12:01:33.092Z,1.00
2022-09-22T12:02:37.632Z,2.00
2022-09-22T12:03:42.094Z,2.00
2022-09-22T12:04:46.329Z,1.00
2022-09-22T12:05:50.942Z,1.00
2022-09-22T12:06:55.272Z,1.50
2022-09-22T12:07:59.768Z,0.75
2022-09-22T12:09:03.943Z,0.25
2022-09-22T12:10:08.537Z,1.00
2022-09-22T12:11:12.793Z,0.50
2022-09-22T12:13:36.619Z,1.00
2022-09-22T12:14:41.074Z,0.75
2022-09-22T12:15:45.130Z,1.50
2022-09-22T12:16:49.310Z,0.00
2022-09-22T12:17:53.490Z,1.00
2022-09-22T12:18:57.870Z,1.00
2022-09-22T12:20:02.005Z,1.25
2022-09-22T12:21:06.211Z,0.50
2022-09-22T12:22:10.931Z,1.00
2022-09-22T12:23:15.232Z,1.50
2022-09-22T12:24:19.863Z,1.00
2022-09-22T12:25:37.715Z,0.50
2022-09-22T12:26:29.390Z,0.50
2022-09-22T12:27:33.491Z,0.25
2022-09-22T12:28:37.489Z,1.25
2022-09-22T12:29:41.694Z,1.75
2022-09-22T12:30:45.841Z,1.50
2022-09-22T12:31:49.791Z,1.50
2022-09-22T12:32:54.005Z,1.50
2022-09-22T12:33:58.509Z,0.50
2022-09-22T12:35:02.932Z,1.00
2022-09-22T12:36:07.242Z,1.00
2022-09-22T12:37:11.390Z,1.00
2022-09-22T12:38:15.406Z,1.25
2022-09-22T12:39:19.660Z,1.50
2022-09-22T12:40:23.819Z,1.00
2022-09-22T12:41:27.960Z,2.00
2022-09-22T12:42:31.949Z,1.50
2022-09-22T12:43:35.860Z,1.00
2022-09-22T12:44:40.271Z,1.50
2022-09-22T12:45:44.541Z,2.00
2022-09-22T12:46:48.785Z,2.25
2022-09-22T12:47:53.100Z,2.00
2022-09-22T12:48:57.196Z,2.00
2022-09-22T12:50:01.212Z,2.00
2022-09-22T12:51:05.298Z,1.67
2022-09-22T12:52:09.505Z,1.00
2022-09-22T12:53:13.711Z,1.50
2022-09-22T12:54:17.902Z,0.75
2022-09-22T12:55:21.926Z,1.50
2022-09-22T12:56:26.431Z,1.50
2022-09-22T12:57:30.438Z,1.00
2022-09-22T12:58:34.638Z,1.50
2022-09-22T12:59:38.846Z,2.50
2022-09-22T13:00:43.149Z,3.00
2022-09-22T13:09:12.290Z,2.00
2022-09-22T13:10:16.444Z,2.00
2022-09-22T13:11:20.610Z,2.50
2022-09-22T13:12:24.609Z,2.50
2022-09-22T13:13:28.609Z,1.50
2022-09-22T13:14:32.707Z,2.00
2022-09-22T13:15:37.091Z,1.75
2022-09-22T13:16:41.314Z,1.00
2022-09-22T13:17:45.185Z,2.50
2022-09-22T13:18:49.040Z,2.25
2022-09-22T13:19:52.908Z,2.00
2022-09-22T13:20:56.811Z,1.75
2022-09-22T13:22:01.022Z,3.50
2022-09-22T13:23:05.231Z,2.00
2022-09-22T13:24:10.650Z,2.50
2022-09-22T13:25:14.870Z,2.00
2022-09-22T13:26:19.180Z,1.50
2022-09-22T13:27:23.483Z,2.50
2022-09-22T13:28:27.905Z,2.50
2022-09-22T13:29:32.423Z,2.00
2022-09-22T13:30:36.785Z,2.00
2022-09-22T13:31:40.826Z,3.00
2022-09-22T13:32:44.938Z,3.00
2022-09-22T13:33:49.030Z,2.00
2022-09-22T13:34:53.354Z,2.25
2022-09-22T13:35:57.418Z,2.50
2022-09-22T13:37:01.961Z,2.00
2022-09-22T13:38:06.016Z,3.50
2022-09-22T13:39:10.169Z,4.25
2022-09-22T13:40:14.397Z,3.00
2022-09-22T13:41:18.680Z,2.25
2022-09-22T13:42:23.082Z,1.50
2022-09-22T13:43:27.190Z,2.50
2022-09-22T13:44:31.500Z,2.75
2022-09-22T13:45:35.697Z,1.75
2022-09-22T13:46:39.807Z,2.50
2022-09-22T13:47:43.909Z,2.00
2022-09-22T13:48:48.117Z,1.00
2022-09-22T13:49:52.323Z,1.75
2022-09-22T13:50:56.186Z,2.00
2022-09-22T13:52:00.340Z,2.00
2022-09-22T13:53:04.426Z,1.00
2022-09-22T13:54:08.426Z,2.75
2022-09-22T13:55:12.632Z,2.00
2022-09-22T13:56:21.357Z,1.25
2022-09-22T13:57:22.078Z,2.00
2022-09-22T13:58:26.480Z,2.00
2022-09-22T13:59:30.691Z,1.00
2022-09-22T14:00:49.872Z,1.50
2022-09-22T14:01:39.980Z,2.00
2022-09-22T14:02:44.142Z,2.00
2022-09-22T14:03:48.428Z,1.50
2022-09-22T14:04:52.642Z,1.50
2022-09-22T14:05:56.799Z,1.50
2022-09-22T14:07:00.632Z,1.00
2022-09-22T14:08:13.649Z,1.25
2022-09-22T14:09:09.668Z,2.00
2022-09-22T14:10:13.862Z,1.75
2022-09-22T14:11:17.870Z,1.50
2022-09-22T14:12:21.980Z,1.50
2022-09-22T14:13:25.982Z,2.00
2022-09-22T14:14:29.992Z,2.50
2022-09-22T14:15:33.973Z,2.00
2022-09-22T14:16:37.997Z,1.00
2022-09-22T14:17:41.985Z,1.50
2022-09-22T14:18:46.084Z,1.25
2022-09-22T14:19:50.191Z,2.00
2022-09-22T14:20:54.392Z,2.00
2022-09-22T14:21:58.407Z,1.75
2022-09-22T14:23:02.603Z,2.00
2022-09-22T14:24:06.816Z,1.50
2022-09-22T14:25:10.908Z,1.50
2022-09-22T14:26:14.887Z,1.00
2022-09-22T14:27:18.948Z,1.00
2022-09-22T14:28:23.133Z,1.00